createdAt,value
2018-05-19T00:01:52.671Z,12.70
2018-05-19T00:04:25.187Z,12.70
2018-05-19T00:06:58.522Z,12.60
2018-05-19T00:09:31.965Z,12.60
2018-05-19T00:12:04.645Z,12.60
2018-05-19T00:14:37.114Z,12.60
2018-05-19T00:17:10.430Z,12.50
2018-05-19T00:19:43.131Z,12.40
2018-05-19T00:22:15.659Z,12.40
2018-05-19T00:24:48.079Z,12.40
2018-05-19T00:27:20.575Z,12.40
2018-05-19T00:29:53.951Z,12.30
2018-05-19T00:32:26.834Z,12.30
2018-05-19T00:35:00.146Z,12.30
2018-05-19T00:37:32.761Z,12.30
2018-05-19T00:40:05.710Z,12.20
2018-05-19T00:42:38.818Z,12.20
2018-05-19T00:45:11.727Z,12.20
2018-05-19T00:47:44.963Z,12.10
2018-05-19T00:50:17.898Z,12.10
2018-05-19T00:52:51.760Z,12.10
2018-05-19T00:55:24.470Z,12.00
2018-05-19T00:57:57.749Z,12.00
2018-05-19T01:00:31.292Z,12.00
2018-05-19T01:03:03.979Z,12.00
2018-05-19T01:05:36.514Z,12.00
2018-05-19T01:08:09.005Z,12.00
2018-05-19T01:10:41.513Z,12.00
2018-05-19T01:13:14.043Z,11.90
2018-05-19T01:15:46.480Z,11.90
2018-05-19T01:18:19.769Z,11.90
2018-05-19T01:20:52.578Z,11.90
2018-05-19T01:23:25.116Z,11.90
2018-05-19T01:25:57.529Z,11.90
2018-05-19T01:28:29.933Z,11.90
2018-05-19T01:31:03.187Z,11.90
2018-05-19T01:33:36.688Z,11.90
2018-05-19T01:36:09.825Z,11.90
2018-05-19T01:38:43.221Z,11.90
2018-05-19T01:41:15.795Z,11.90
2018-05-19T01:43:48.587Z,11.90
2018-05-19T01:46:22.236Z,11.80
2018-05-19T01:48:55.561Z,11.80
2018-05-19T01:51:28.648Z,11.80
2018-05-19T01:54:01.604Z,11.80
2018-05-19T01:56:34.536Z,11.80
2018-05-19T01:59:07.371Z,11.80
2018-05-19T02:01:39.930Z,11.80
2018-05-19T02:04:13.253Z,11.70
2018-05-19T02:06:46.043Z,11.70
2018-05-19T02:09:18.441Z,11.70
2018-05-19T02:11:50.831Z,11.70
2018-05-19T02:14:23.372Z,11.70
2018-05-19T02:16:55.744Z,11.60
2018-05-19T02:19:28.945Z,11.60
2018-05-19T02:22:01.737Z,11.60
2018-05-19T02:24:34.270Z,11.50
2018-05-19T02:27:06.830Z,11.50
2018-05-19T02:29:40.251Z,11.50
2018-05-19T02:32:13.745Z,11.40
2018-05-19T02:34:47.219Z,11.40
2018-05-19T02:37:20.561Z,11.40
2018-05-19T02:39:53.353Z,11.30
2018-05-19T02:42:25.806Z,11.30
2018-05-19T02:44:58.365Z,11.30
2018-05-19T02:47:30.926Z,11.30
2018-05-19T02:50:03.439Z,11.30
2018-05-19T02:52:36.734Z,11.20
2018-05-19T02:55:09.822Z,11.10
2018-05-19T02:57:42.884Z,11.10
2018-05-19T03:00:16.184Z,11.10
2018-05-19T03:02:50.003Z,11.10
2018-05-19T03:05:24.091Z,11.00
2018-05-19T03:07:57.297Z,11.00
2018-05-19T03:10:30.860Z,10.90
2018-05-19T03:13:03.473Z,10.90
2018-05-19T03:15:35.869Z,10.90
2018-05-19T03:18:09.167Z,10.90
2018-05-19T03:20:42.726Z,10.80
2018-05-19T03:23:15.376Z,10.80
2018-05-19T03:25:47.824Z,10.80
2018-05-19T03:28:21.275Z,10.80
2018-05-19T03:30:54.554Z,10.70
2018-05-19T03:33:28.012Z,10.70
2018-05-19T03:36:00.923Z,10.70
2018-05-19T03:38:35.097Z,10.60
2018-05-19T03:41:08.375Z,10.60
2018-05-19T03:43:41.757Z,10.60
2018-05-19T03:46:14.408Z,10.60
2018-05-19T03:48:46.872Z,10.60
2018-05-19T03:51:19.433Z,10.60
2018-05-19T03:53:52.828Z,10.50
2018-05-19T03:56:25.200Z,10.50
2018-05-19T03:59:16.160Z,10.50
2018-05-19T04:04:52.938Z,10.40
2018-05-19T04:07:25.694Z,10.40
2018-05-19T04:09:58.179Z,10.40
2018-05-19T04:12:31.469Z,10.40
2018-05-19T04:15:04.789Z,10.40
2018-05-19T04:17:37.530Z,10.40
2018-05-19T04:20:11.070Z,10.40
2018-05-19T04:22:43.583Z,10.50
2018-05-19T04:25:16.069Z,10.50
2018-05-19T04:27:49.251Z,10.60
2018-05-19T04:30:21.967Z,10.60
2018-05-19T04:32:55.248Z,10.70
2018-05-19T04:35:27.739Z,10.70
2018-05-19T04:38:00.201Z,10.80
2018-05-19T04:40:33.732Z,10.90
2018-05-19T04:43:06.819Z,11.10
2018-05-19T04:45:40.532Z,11.20
2018-05-19T04:48:14.164Z,11.30
2018-05-19T04:50:47.649Z,11.20
2018-05-19T04:53:20.599Z,11.40
2018-05-19T04:55:53.221Z,11.50
2018-05-19T04:58:25.918Z,11.70
2018-05-19T05:00:58.393Z,11.80
2018-05-19T05:03:30.898Z,11.90
2018-05-19T05:06:03.593Z,12.10
2018-05-19T05:08:36.123Z,12.20
2018-05-19T05:11:09.716Z,12.70
2018-05-19T05:13:43.553Z,12.90
2018-05-19T05:16:16.582Z,12.90
2018-05-19T05:18:49.044Z,13.20
2018-05-19T05:21:22.474Z,13.80
2018-05-19T05:23:55.122Z,13.80
2018-05-19T05:26:27.699Z,14.10
2018-05-19T05:29:00.126Z,14.80
2018-05-19T05:31:32.617Z,15.40
2018-05-19T05:34:05.454Z,15.80
2018-05-19T05:36:37.936Z,16.30
2018-05-19T05:39:10.514Z,17.20
2018-05-19T05:41:43.031Z,17.80
2018-05-19T05:44:15.563Z,18.20
2018-05-19T05:46:48.667Z,18.40
2018-05-19T05:49:22.276Z,18.50
2018-05-19T05:51:55.342Z,18.50
2018-05-19T05:54:28.519Z,18.40
2018-05-19T05:57:01.709Z,18.40
2018-05-19T05:59:34.870Z,18.30
2018-05-19T06:02:08.860Z,18.30
2018-05-19T06:04:41.664Z,18.30
2018-05-19T06:07:14.897Z,18.70
2018-05-19T06:09:47.677Z,18.70
2018-05-19T06:12:20.141Z,19.00
2018-05-19T06:14:53.059Z,19.20
2018-05-19T06:17:25.668Z,19.30
2018-05-19T06:19:58.396Z,19.40
2018-05-19T06:22:30.850Z,19.40
2018-05-19T06:25:03.576Z,19.40
2018-05-19T06:27:36.746Z,18.90
2018-05-19T06:30:09.950Z,18.90
2018-05-19T06:32:43.327Z,18.90
2018-05-19T06:35:16.026Z,18.90
2018-05-19T06:37:49.460Z,18.80
2018-05-19T06:40:22.627Z,18.80
2018-05-19T06:42:55.646Z,18.60
2018-05-19T06:45:28.842Z,18.60
2018-05-19T06:48:01.852Z,18.50
2018-05-19T06:50:35.160Z,18.40
2018-05-19T06:53:08.148Z,18.40
2018-05-19T06:55:40.944Z,18.50
2018-05-19T06:58:13.755Z,18.60
2018-05-19T07:00:47.250Z,18.70
2018-05-19T07:03:19.845Z,18.90
2018-05-19T07:05:53.142Z,19.10
2018-05-19T07:08:26.970Z,19.60
2018-05-19T07:11:00.363Z,19.70
2018-05-19T07:13:33.192Z,19.70
2018-05-19T07:16:06.314Z,20.20
2018-05-19T07:18:40.037Z,20.60
2018-05-19T07:21:12.736Z,20.50
2018-05-19T07:23:45.423Z,20.90
2018-05-19T07:26:18.315Z,21.10
2018-05-19T07:28:51.578Z,21.20
2018-05-19T07:31:24.484Z,21.20
2018-05-19T07:33:57.078Z,21.40
2018-05-19T07:36:30.552Z,21.40
2018-05-19T07:39:04.125Z,21.60
2018-05-19T07:41:36.893Z,21.90
2018-05-19T07:44:09.402Z,22.20
2018-05-19T07:46:41.987Z,22.30
2018-05-19T07:49:15.365Z,22.10
2018-05-19T07:51:48.046Z,22.00
2018-05-19T07:54:21.017Z,22.00
2018-05-19T07:56:53.500Z,22.10
2018-05-19T07:59:26.925Z,22.40
2018-05-19T08:02:00.455Z,22.40
2018-05-19T08:04:33.372Z,22.40
2018-05-19T08:07:06.653Z,21.90
2018-05-19T08:09:39.334Z,21.90
2018-05-19T08:12:11.892Z,21.80
2018-05-19T08:14:45.036Z,21.90
2018-05-19T08:17:17.871Z,21.90
2018-05-19T08:19:51.241Z,22.10
2018-05-19T08:22:23.962Z,22.50
2018-05-19T08:24:56.348Z,22.80
2018-05-19T08:27:29.628Z,23.00
2018-05-19T08:30:02.893Z,23.40
2018-05-19T08:32:35.536Z,23.40
2018-05-19T08:35:08.237Z,23.60
2018-05-19T08:37:41.075Z,23.80
2018-05-19T08:40:14.437Z,24.30
2018-05-19T08:42:47.320Z,24.30
2018-05-19T08:45:20.548Z,24.60
2018-05-19T08:47:53.374Z,24.70
2018-05-19T08:50:26.032Z,24.70
2018-05-19T08:52:58.733Z,24.80
2018-05-19T08:55:31.996Z,24.80
2018-05-19T08:58:04.659Z,24.80
2018-05-19T09:00:37.219Z,24.90
2018-05-19T09:03:10.140Z,24.90
2018-05-19T09:05:43.796Z,25.00
2018-05-19T09:08:16.937Z,25.00
2018-05-19T09:10:50.525Z,25.20
2018-05-19T09:13:23.108Z,25.20
2018-05-19T09:15:56.854Z,25.20
2018-05-19T09:18:29.549Z,25.40
2018-05-19T09:21:02.045Z,25.20
2018-05-19T09:23:34.666Z,25.00
2018-05-19T09:26:08.105Z,25.20
2018-05-19T09:28:40.824Z,25.20
2018-05-19T09:31:13.251Z,25.40
2018-05-19T09:33:46.055Z,25.40
2018-05-19T09:36:19.328Z,24.80
2018-05-19T09:38:52.258Z,24.70
2018-05-19T09:41:24.655Z,24.60
2018-05-19T09:43:57.740Z,24.40
2018-05-19T09:46:30.872Z,24.40
2018-05-19T09:49:04.010Z,24.10
2018-05-19T09:51:37.865Z,24.10
2018-05-19T09:54:10.903Z,24.10
2018-05-19T09:56:44.978Z,23.90
2018-05-19T09:59:19.049Z,23.50
2018-05-19T10:01:52.205Z,23.60
2018-05-19T10:04:24.999Z,23.30
2018-05-19T10:06:57.435Z,23.00
2018-05-19T10:09:30.826Z,22.90
2018-05-19T10:12:03.682Z,22.90
2018-05-19T10:14:36.224Z,23.00
2018-05-19T10:17:09.699Z,23.30
2018-05-19T10:19:42.948Z,23.20
2018-05-19T10:22:16.239Z,23.50
2018-05-19T10:24:49.077Z,23.50
2018-05-19T10:27:21.696Z,23.80
2018-05-19T10:29:54.201Z,23.90
2018-05-19T10:32:26.751Z,24.00
2018-05-19T10:34:59.350Z,24.00
2018-05-19T10:37:32.022Z,23.90
2018-05-19T10:40:04.933Z,23.90
2018-05-19T10:42:37.474Z,23.50
2018-05-19T10:45:10.373Z,23.40
2018-05-19T10:47:44.512Z,23.50
2018-05-19T10:50:17.886Z,23.40
2018-05-19T10:52:50.813Z,23.50
2018-05-19T10:55:24.308Z,23.50
2018-05-19T10:57:57.594Z,23.40
2018-05-19T11:00:30.196Z,23.30
2018-05-19T11:03:02.833Z,23.10
2018-05-19T11:05:36.053Z,23.00
2018-05-19T11:08:08.620Z,22.90
2018-05-19T11:10:41.101Z,22.80
2018-05-19T11:13:13.594Z,22.80
2018-05-19T11:15:46.051Z,22.60
2018-05-19T11:18:19.515Z,22.40
2018-05-19T11:20:52.758Z,22.20
2018-05-19T11:23:25.471Z,22.20
2018-05-19T11:25:58.629Z,22.00
2018-05-19T11:28:31.545Z,22.00
2018-05-19T11:31:05.481Z,21.90
2018-05-19T11:33:38.181Z,21.90
2018-05-19T11:36:11.672Z,21.70
2018-05-19T11:38:44.446Z,21.70
2018-05-19T11:41:17.808Z,21.60
2018-05-19T11:43:50.603Z,21.60
2018-05-19T11:46:23.232Z,21.60
2018-05-19T11:48:55.953Z,21.70
2018-05-19T11:51:30.250Z,21.80
2018-05-19T11:54:03.874Z,21.80
2018-05-19T11:56:36.490Z,21.80
2018-05-19T11:59:09.328Z,21.80
2018-05-19T12:01:41.887Z,21.70
2018-05-19T12:04:15.214Z,21.80
2018-05-19T12:06:47.864Z,21.80
2018-05-19T12:09:20.422Z,21.80
2018-05-19T12:11:53.067Z,21.80
2018-05-19T12:14:26.595Z,21.70
2018-05-19T12:16:59.975Z,21.70
2018-05-19T12:19:32.880Z,21.70
2018-05-19T12:22:06.109Z,21.90
2018-05-19T12:24:39.037Z,21.80
2018-05-19T12:27:11.739Z,21.80
2018-05-19T12:29:44.199Z,21.70
2018-05-19T12:32:16.652Z,21.80
2018-05-19T12:34:49.933Z,22.00
2018-05-19T12:37:23.481Z,22.00
2018-05-19T12:39:57.056Z,22.00
2018-05-19T12:42:30.455Z,22.00
2018-05-19T12:45:03.397Z,22.10
2018-05-19T12:47:36.777Z,21.90
2018-05-19T12:50:09.825Z,21.90
2018-05-19T12:52:43.991Z,22.00
2018-05-19T12:55:16.958Z,22.00
2018-05-19T12:57:49.422Z,21.90
2018-05-19T13:00:22.026Z,21.90
2018-05-19T13:02:54.820Z,21.90
2018-05-19T13:05:27.428Z,21.90
2018-05-19T13:07:59.893Z,21.90
2018-05-19T13:10:32.690Z,21.80
2018-05-19T13:13:05.877Z,21.70
2018-05-19T13:15:39.145Z,21.70
2018-05-19T13:18:12.054Z,21.70
2018-05-19T13:20:44.719Z,21.80
2018-05-19T13:23:18.516Z,21.80
2018-05-19T13:25:51.056Z,21.80
2018-05-19T13:28:23.790Z,21.80
2018-05-19T13:30:57.056Z,21.90
2018-05-19T13:33:30.331Z,21.80
2018-05-19T13:36:03.519Z,21.70
2018-05-19T13:38:37.552Z,21.60
2018-05-19T13:41:12.587Z,21.50
2018-05-19T13:43:45.531Z,21.60
2018-05-19T13:46:17.977Z,21.50
2018-05-19T13:48:50.836Z,21.50
2018-05-19T13:51:23.811Z,21.50
2018-05-19T13:53:56.717Z,21.40
2018-05-19T13:56:29.360Z,21.30
2018-05-19T13:59:01.891Z,21.30
2018-05-19T14:01:34.595Z,21.20
2018-05-19T14:04:07.085Z,21.20
2018-05-19T14:06:39.689Z,21.10
2018-05-19T14:09:12.188Z,21.00
2018-05-19T14:11:46.451Z,21.00
2018-05-19T14:14:19.297Z,21.00
2018-05-19T14:16:51.626Z,21.00
2018-05-19T14:19:24.582Z,20.90
2018-05-19T14:21:57.794Z,21.00
2018-05-19T14:24:30.973Z,20.90
2018-05-19T14:27:03.578Z,20.90
2018-05-19T14:29:36.979Z,20.80
2018-05-19T14:32:10.787Z,20.80
2018-05-19T14:34:43.603Z,20.80
2018-05-19T14:37:15.960Z,20.80
2018-05-19T14:39:48.653Z,20.60
2018-05-19T14:42:21.557Z,20.60
2018-05-19T14:44:54.057Z,20.50
2018-05-19T14:47:26.858Z,20.40
2018-05-19T14:50:00.218Z,20.10
2018-05-19T14:52:32.800Z,20.10
2018-05-19T14:55:05.221Z,19.90
2018-05-19T14:57:38.686Z,19.70
2018-05-19T15:00:11.976Z,19.30
2018-05-19T15:02:44.904Z,19.30
2018-05-19T15:05:17.932Z,19.10
2018-05-19T15:07:51.140Z,18.90
2018-05-19T15:10:24.532Z,18.90
2018-05-19T15:12:57.665Z,18.80
2018-05-19T15:15:30.230Z,18.70
2018-05-19T15:18:03.668Z,18.60
2018-05-19T15:20:37.298Z,18.40
2018-05-19T15:23:10.694Z,18.30
2018-05-19T15:25:43.398Z,18.30
2018-05-19T15:28:17.263Z,18.00
2018-05-19T15:30:50.543Z,17.90
2018-05-19T15:33:24.215Z,17.60
2018-05-19T15:35:57.037Z,17.60
2018-05-19T15:38:30.320Z,17.10
2018-05-19T15:41:03.959Z,17.00
2018-05-19T15:43:37.214Z,16.80
2018-05-19T15:46:09.812Z,16.60
2018-05-19T15:48:42.219Z,16.50
2018-05-19T15:51:17.707Z,16.30
2018-05-19T15:53:51.692Z,16.40
2018-05-19T15:56:25.040Z,16.30
2018-05-19T15:59:00.217Z,16.30
2018-05-19T16:01:33.550Z,16.30
2018-05-19T16:04:06.664Z,16.20
2018-05-19T16:06:39.653Z,16.20
2018-05-19T16:09:12.221Z,16.20
2018-05-19T16:11:44.789Z,16.00
2018-05-19T16:14:17.623Z,15.90
2018-05-19T16:16:50.364Z,15.90
2018-05-19T16:19:22.861Z,15.80
2018-05-19T16:21:55.426Z,15.70
2018-05-19T16:24:27.982Z,15.50
2018-05-19T16:27:01.295Z,15.30
2018-05-19T16:29:34.247Z,15.30
2018-05-19T16:32:07.618Z,15.30
2018-05-19T16:34:40.174Z,15.20
2018-05-19T16:37:12.827Z,15.10
2018-05-19T16:39:46.484Z,15.10
2018-05-19T16:42:19.717Z,15.00
2018-05-19T16:44:53.069Z,14.90
2018-05-19T16:47:26.891Z,14.80
2018-05-19T16:50:00.377Z,14.80
2018-05-19T16:52:34.335Z,14.70
2018-05-19T16:55:07.715Z,14.70
2018-05-19T16:57:41.265Z,14.60
2018-05-19T17:00:14.150Z,14.60
2018-05-19T17:02:48.016Z,14.60
2018-05-19T17:05:21.861Z,14.50
2018-05-19T17:07:54.380Z,14.50
2018-05-19T17:10:28.007Z,14.40
2018-05-19T17:13:01.338Z,14.40
2018-05-19T17:15:33.805Z,14.40
2018-05-19T17:18:07.123Z,14.30
2018-05-19T17:20:39.854Z,14.30
2018-05-19T17:23:12.815Z,14.30
2018-05-19T17:25:45.764Z,14.20
2018-05-19T17:28:19.820Z,14.10
2018-05-19T17:30:52.800Z,14.10
2018-05-19T17:33:26.816Z,14.10
2018-05-19T17:36:00.023Z,14.00
2018-05-19T17:38:32.724Z,13.90
2018-05-19T17:41:05.252Z,13.90
2018-05-19T17:43:38.227Z,13.90
2018-05-19T17:46:11.012Z,13.80
2018-05-19T17:48:43.759Z,13.80
2018-05-19T17:51:16.196Z,13.80
2018-05-19T17:53:49.049Z,13.80
2018-05-19T17:56:21.661Z,13.80
2018-05-19T17:58:54.699Z,13.80
2018-05-19T18:01:27.185Z,13.70
2018-05-19T18:03:59.866Z,13.60
2018-05-19T18:06:33.688Z,13.60
2018-05-19T18:09:06.440Z,13.60
2018-05-19T18:11:39.533Z,13.60
2018-05-19T18:14:12.141Z,13.60
2018-05-19T18:16:44.607Z,13.60
2018-05-19T18:19:17.328Z,13.60
2018-05-19T18:21:49.723Z,13.60
2018-05-19T18:24:22.426Z,13.60
2018-05-19T18:26:55.828Z,13.60
2018-05-19T18:29:29.972Z,13.60
2018-05-19T18:32:03.169Z,13.60
2018-05-19T18:34:36.323Z,13.60
2018-05-19T18:37:09.220Z,13.60
2018-05-19T18:39:42.939Z,13.60
2018-05-19T18:42:16.583Z,13.60
2018-05-19T18:44:49.419Z,13.60
2018-05-19T18:47:23.027Z,13.60
2018-05-19T18:49:55.428Z,13.60
2018-05-19T18:52:28.585Z,13.70
2018-05-19T18:55:02.102Z,13.70
2018-05-19T18:57:34.837Z,13.60
2018-05-19T19:00:07.984Z,13.70
2018-05-19T19:02:41.201Z,13.70
2018-05-19T19:05:13.677Z,13.60
2018-05-19T19:07:46.274Z,13.70
2018-05-19T19:10:19.203Z,13.70
2018-05-19T19:12:52.176Z,13.60
2018-05-19T19:15:24.892Z,13.70
2018-05-19T19:17:58.049Z,13.70
2018-05-19T19:20:33.399Z,13.60
2018-05-19T19:23:06.616Z,13.70
2018-05-19T19:25:40.017Z,13.70
2018-05-19T19:28:12.813Z,13.70
2018-05-19T19:30:45.564Z,13.70
2018-05-19T19:33:19.712Z,13.70
2018-05-19T19:35:52.997Z,13.70
2018-05-19T19:38:25.364Z,13.70
2018-05-19T19:40:57.726Z,13.70
2018-05-19T19:43:30.217Z,13.70
2018-05-19T19:46:03.548Z,13.70
2018-05-19T19:48:37.060Z,13.70
2018-05-19T19:51:10.278Z,13.70
2018-05-19T19:53:43.709Z,13.70
2018-05-19T19:56:16.298Z,13.70
2018-05-19T19:58:49.682Z,13.80
2018-05-19T20:01:23.285Z,13.80
2018-05-19T20:03:55.948Z,13.70
2018-05-19T20:06:28.616Z,13.70
2018-05-19T20:09:01.080Z,13.80
2018-05-19T20:11:34.705Z,13.80
2018-05-19T20:14:08.267Z,13.70
2018-05-19T20:16:41.092Z,13.70
2018-05-19T20:19:13.623Z,13.70
2018-05-19T20:21:46.140Z,13.70
2018-05-19T20:24:18.619Z,13.70
2018-05-19T20:26:52.556Z,13.60
2018-05-19T20:29:25.564Z,13.60
2018-05-19T20:31:58.051Z,13.70
2018-05-19T20:34:30.701Z,13.60
2018-05-19T20:37:03.233Z,13.60
2018-05-19T20:39:35.785Z,13.70
2018-05-19T20:42:09.235Z,13.60
2018-05-19T20:44:42.834Z,13.60
2018-05-19T20:47:16.427Z,13.60
2018-05-19T20:49:49.319Z,13.60
2018-05-19T20:52:22.713Z,13.60
2018-05-19T20:54:56.315Z,13.60
2018-05-19T20:57:29.017Z,13.60
2018-05-19T21:00:01.542Z,13.60
2018-05-19T21:02:34.504Z,13.60
2018-05-19T21:05:07.092Z,13.60
2018-05-19T21:07:40.505Z,13.60
2018-05-19T21:10:14.309Z,13.60
2018-05-19T21:12:47.028Z,13.60
2018-05-19T21:15:19.547Z,13.60
2018-05-19T21:17:51.998Z,13.60
2018-05-19T21:20:24.435Z,13.60
2018-05-19T21:22:57.806Z,13.60
2018-05-19T21:25:30.973Z,13.60
2018-05-19T21:28:05.094Z,13.60
2018-05-19T21:30:38.448Z,13.60
2018-05-19T21:33:11.246Z,13.60
2018-05-19T21:35:43.823Z,13.60
2018-05-19T21:38:16.392Z,13.60
2018-05-19T21:40:48.822Z,13.60
2018-05-19T21:43:21.425Z,13.50
2018-05-19T21:45:53.807Z,13.50
2018-05-19T21:48:26.213Z,13.60
2018-05-19T21:50:58.602Z,13.60
2018-05-19T21:53:32.192Z,13.60
2018-05-19T21:56:05.036Z,13.60
2018-05-19T21:58:37.564Z,13.60
2018-05-19T22:01:10.763Z,13.60
2018-05-19T22:03:43.444Z,13.60
2018-05-19T22:06:15.956Z,13.70
2018-05-19T22:08:48.673Z,13.70
2018-05-19T22:11:21.417Z,13.70
2018-05-19T22:13:54.191Z,13.70
2018-05-19T22:16:26.877Z,13.70
2018-05-19T22:18:59.449Z,13.70
2018-05-19T22:21:32.016Z,13.70
2018-05-19T22:24:04.491Z,13.70
2018-05-19T22:26:38.618Z,13.70
2018-05-19T22:29:18.525Z,13.60
2018-05-19T22:31:51.189Z,13.70
2018-05-19T22:34:24.562Z,13.70
2018-05-19T22:36:56.937Z,13.70
2018-05-19T22:39:30.497Z,13.70
2018-05-19T22:42:03.523Z,13.60
2018-05-19T22:44:36.813Z,13.70
2018-05-19T22:47:09.176Z,13.60
2018-05-19T22:49:42.121Z,13.60
2018-05-19T22:52:15.309Z,13.60
2018-05-19T22:54:48.161Z,13.50
2018-05-19T22:57:20.657Z,13.50
2018-05-19T22:59:53.650Z,13.50
2018-05-19T23:02:26.718Z,13.50
2018-05-19T23:04:59.850Z,13.60
2018-05-19T23:07:32.649Z,13.50
2018-05-19T23:10:05.112Z,13.60
2018-05-19T23:12:37.731Z,13.60
2018-05-19T23:15:10.914Z,13.60
2018-05-19T23:17:43.627Z,13.50
2018-05-19T23:20:16.877Z,13.60
2018-05-19T23:22:52.661Z,13.60
2018-05-19T23:25:26.091Z,13.60
2018-05-19T23:27:59.713Z,13.60
2018-05-19T23:30:32.283Z,13.60
2018-05-19T23:33:04.804Z,13.50
2018-05-19T23:35:38.703Z,13.50
2018-05-19T23:38:12.184Z,13.50
2018-05-19T23:40:44.849Z,13.50
2018-05-19T23:43:17.386Z,13.50
2018-05-19T23:45:49.715Z,13.40
2018-05-19T23:48:22.261Z,13.40
2018-05-19T23:50:54.872Z,13.40
2018-05-19T23:53:27.347Z,13.40
2018-05-19T23:56:00.641Z,13.30
2018-05-19T23:58:34.159Z,13.30
